Time;durP1;ratioP1;P1;durP2;ratioP2;P2;SDS_P1;SDS_P2;PMS_P1;PMS_P2;Temp;Humidity;BMP_temperature;BMP_pressure;BME280_temperature;BME280_humidity;BME280_pressure;Samples;Min_cycle;Max_cycle;Signal;HPM_P1;HPM_P2
2024/02/12 00:00:18;;;;;;;33.17;25.00;;;5.00;96.60;;;;;;5057095;28;20266;-91
2024/02/12 00:02:44;;;;;;;35.13;24.37;;;5.00;96.60;;;;;;5057411;28;20163;-91
2024/02/12 00:05:10;;;;;;;40.57;26.73;;;5.00;96.60;;;;;;5062964;28;20175;-89
2024/02/12 00:07:36;;;;;;;33.87;24.93;;;5.00;96.60;;;;;;5075877;28;20198;-91
2024/02/12 00:10:05;;;;;;;35.37;25.67;;;5.00;96.50;;;;;;5057021;28;20637;-90
2024/02/12 00:12:34;;;;;;;32.97;24.10;;;5.00;96.60;;;;;;5057258;28;20221;-91
2024/02/12 00:15:00;;;;;;;41.03;27.33;;;5.00;96.60;;;;;;5075015;28;20171;-88
2024/02/12 00:17:28;;;;;;;36.53;26.90;;;5.00;96.50;;;;;;5056370;28;20195;-88
2024/02/12 00:19:54;;;;;;;39.87;26.43;;;5.10;96.60;;;;;;5056538;28;20176;-89
2024/02/12 00:22:20;;;;;;;39.47;26.30;;;5.10;96.60;;;;;;5057139;28;20210;-89
2024/02/12 00:24:45;;;;;;;32.90;26.30;;;5.00;96.50;;;;;;5056380;28;20254;-89
2024/02/12 00:27:11;;;;;;;36.33;26.57;;;5.00;96.60;;;;;;5056274;28;20179;-89
2024/02/12 00:29:37;;;;;;;35.90;26.43;;;5.00;96.60;;;;;;5056339;28;20249;-89
2024/02/12 00:32:03;;;;;;;31.70;26.07;;;5.00;96.60;;;;;;5056214;28;20650;-89
2024/02/12 00:34:29;;;;;;;41.67;29.50;;;5.10;96.60;;;;;;5056171;28;20201;-88
2024/02/12 00:36:55;;;;;;;37.47;28.33;;;5.10;96.60;;;;;;5056321;28;20176;-89
2024/02/12 00:39:21;;;;;;;37.70;27.97;;;5.00;96.60;;;;;;5056220;28;20667;-89
2024/02/12 00:41:50;;;;;;;41.20;29.10;;;5.00;96.60;;;;;;5055983;28;20199;-89
2024/02/12 00:44:17;;;;;;;36.33;29.40;;;5.00;96.60;;;;;;5056747;28;20525;-88
2024/02/12 00:46:47;;;;;;;39.10;29.50;;;5.10;96.60;;;;;;5056137;28;20197;-88
2024/02/12 00:49:14;;;;;;;38.80;30.87;;;5.10;96.60;;;;;;5055781;28;20199;-88
2024/02/12 00:51:41;;;;;;;51.23;32.67;;;5.10;96.60;;;;;;5056051;28;20235;-89
2024/02/12 00:54:08;;;;;;;51.73;32.03;;;5.00;96.60;;;;;;5055885;28;20182;-89
2024/02/12 00:56:34;;;;;;;53.17;45.90;;;5.00;96.60;;;;;;5055903;28;20201;-89
2024/02/12 00:59:00;;;;;;;56.53;44.40;;;5.00;96.70;;;;;;5054948;28;20742;-89
2024/02/12 01:01:25;;;;;;;54.90;44.53;;;5.00;96.70;;;;;;5056055;28;20195;-89
2024/02/12 01:03:51;;;;;;;49.57;42.27;;;5.00;96.70;;;;;;5056620;28;20167;-88
2024/02/12 01:06:16;;;;;;;55.67;44.17;;;5.00;96.70;;;;;;5055915;28;20176;-89
2024/02/12 01:08:43;;;;;;;52.37;43.53;;;5.00;96.70;;;;;;5056109;28;20191;-88
2024/02/12 01:11:08;;;;;;;53.17;44.03;;;5.10;96.70;;;;;;5056132;28;20607;-88
2024/02/12 01:13:34;;;;;;;48.07;41.80;;;5.10;96.70;;;;;;5055874;28;20187;-89
2024/02/12 01:16:00;;;;;;;47.27;42.07;;;5.10;96.70;;;;;;5055533;28;20616;-89
2024/02/12 01:18:26;;;;;;;46.07;40.83;;;5.10;96.70;;;;;;5055746;28;20199;-88
2024/02/12 01:20:52;;;;;;;48.63;41.87;;;5.10;96.70;;;;;;5055829;28;20199;-88
2024/02/12 01:23:18;;;;;;;49.27;43.90;;;5.20;96.80;;;;;;5055788;28;20179;-88
2024/02/12 01:25:44;;;;;;;56.80;46.27;;;5.10;96.70;;;;;;5055970;28;20526;-89
2024/02/12 01:28:10;;;;;;;60.47;46.13;;;5.00;96.70;;;;;;5055469;28;20201;-88
2024/02/12 01:30:36;;;;;;;64.97;45.27;;;5.00;96.70;;;;;;5055679;28;20183;-89
2024/02/12 01:33:03;;;;;;;67.13;43.80;;;5.00;96.80;;;;;;5055408;28;20179;-88
2024/02/12 01:35:29;;;;;;;60.70;44.30;;;5.00;96.80;;;;;;5055871;28;20179;-88
2024/02/12 01:37:54;;;;;;;70.23;44.40;;;5.00;96.80;;;;;;5055754;28;20575;-88
2024/02/12 01:40:20;;;;;;;63.80;43.67;;;5.00;96.80;;;;;;5055661;28;20187;-89
2024/02/12 01:42:49;;;;;;;70.90;42.10;;;5.00;96.80;;;;;;5055467;28;20174;-88
2024/02/12 01:45:23;;;;;;;70.07;41.67;;;5.00;96.80;;;;;;5073613;28;20254;-90
2024/02/12 01:47:57;;;;;;;75.27;42.03;;;5.00;96.80;;;;;;5055394;28;20201;-88
2024/02/12 01:50:24;;;;;;;71.93;43.10;;;5.00;96.80;;;;;;5073489;28;20178;-90
2024/02/12 01:52:50;;;;;;;73.27;40.97;;;5.00;96.80;;;;;;5055986;28;20267;-89
2024/02/12 01:55:16;;;;;;;70.87;41.73;;;5.00;96.80;;;;;;5073435;28;20202;-91
2024/02/12 01:57:50;;;;;;;60.27;40.70;;;5.00;96.80;;;;;;5055301;28;20199;-89
2024/02/12 02:00:21;;;;;;;69.90;40.23;;;5.00;96.80;;;;;;5073430;28;20162;-88
2024/02/12 02:02:47;;;;;;;72.67;41.27;;;5.00;96.90;;;;;;5055302;28;20178;-88
2024/02/12 02:05:16;;;;;;;77.53;40.57;;;5.10;96.90;;;;;;5058107;28;20633;-91
2024/02/12 02:07:44;;;;;;;77.53;40.83;;;5.10;96.90;;;;;;5055749;28;20191;-89
2024/02/12 02:10:14;;;;;;;68.10;39.43;;;5.10;96.90;;;;;;5075934;28;20259;-89
2024/02/12 02:12:40;;;;;;;78.63;39.03;;;5.10;96.90;;;;;;5059105;28;20182;-90
2024/02/12 02:15:06;;;;;;;81.53;40.63;;;5.20;97.00;;;;;;5059568;28;20645;-89
2024/02/12 02:17:32;;;;;;;73.93;39.93;;;5.20;97.00;;;;;;5059043;28;20701;-89
2024/02/12 02:19:59;;;;;;;72.07;36.43;;;5.20;97.00;;;;;;5058989;28;20167;-90
2024/02/12 02:22:29;;;;;;;77.93;35.17;;;5.20;97.00;;;;;;5076625;28;20192;-89
2024/02/12 02:24:56;;;;;;;77.90;34.43;;;5.20;97.00;;;;;;5058970;28;20642;-90
2024/02/12 02:27:22;;;;;;;80.63;34.93;;;5.30;97.00;;;;;;5058808;28;20332;-89
2024/02/12 02:29:49;;;;;;;80.67;35.97;;;5.30;97.00;;;;;;5058896;28;20523;-89
2024/02/12 02:32:15;;;;;;;84.60;37.00;;;5.30;97.10;;;;;;5058667;28;20218;-89
2024/02/12 02:34:40;;;;;;;83.77;35.80;;;5.30;97.10;;;;;;5058896;28;20202;-90
2024/02/12 02:37:06;;;;;;;91.53;35.73;;;5.30;97.10;;;;;;5058570;28;20191;-89
2024/02/12 02:39:32;;;;;;;95.03;36.83;;;5.30;97.10;;;;;;5058721;28;20183;-89
2024/02/12 02:41:58;;;;;;;81.27;35.53;;;5.30;97.10;;;;;;5058478;28;20203;-89
2024/02/12 02:44:23;;;;;;;79.77;35.73;;;5.30;97.10;;;;;;5059591;28;20179;-89
2024/02/12 02:46:49;;;;;;;105.63;37.37;;;5.30;97.10;;;;;;5058723;28;20183;-88
2024/02/12 02:49:15;;;;;;;102.00;38.10;;;5.30;97.10;;;;;;5058931;28;20195;-89
2024/02/12 02:51:41;;;;;;;118.10;37.77;;;5.30;97.20;;;;;;5058621;28;20270;-90
2024/02/12 02:54:12;;;;;;;136.10;38.93;;;5.30;97.10;;;;;;5058564;28;20267;-89
2024/02/12 02:56:37;;;;;;;137.17;40.00;;;5.30;97.20;;;;;;5058499;28;20171;-89
2024/02/12 02:59:03;;;;;;;145.50;39.17;;;5.30;97.20;;;;;;5058282;28;20583;-88
2024/02/12 03:01:29;;;;;;;141.70;42.00;;;5.30;97.20;;;;;;5058232;28;20199;-89
2024/02/12 03:03:55;;;;;;;135.53;41.23;;;5.30;97.20;;;;;;5058217;28;20612;-89
2024/02/12 03:06:23;;;;;;;135.07;39.97;;;5.30;97.20;;;;;;5058386;28;20259;-89
2024/02/12 03:08:49;;;;;;;115.07;39.00;;;5.30;97.20;;;;;;5057867;28;20195;-89
2024/02/12 03:11:19;;;;;;;118.87;38.67;;;5.40;97.30;;;;;;5058585;28;20175;-90
2024/02/12 03:13:45;;;;;;;104.10;38.47;;;5.40;97.30;;;;;;5058889;28;20179;-90
2024/02/12 03:16:14;;;;;;;129.83;41.03;;;5.40;97.30;;;;;;5057898;28;20195;-88
2024/02/12 03:18:41;;;;;;;121.13;38.57;;;5.40;97.30;;;;;;5075636;28;20202;-89
2024/02/12 03:21:09;;;;;;;89.80;34.13;;;5.40;97.30;;;;;;5056636;28;20202;-89
2024/02/12 03:23:35;;;;;;;96.73;35.83;;;5.40;97.30;;;;;;5057461;28;20224;-89
2024/02/12 03:26:02;;;;;;;78.20;32.43;;;5.50;97.30;;;;;;5057485;28;20180;-90
2024/02/12 03:28:28;;;;;;;84.67;31.77;;;5.40;97.30;;;;;;5057378;28;20279;-88
2024/02/12 03:30:53;;;;;;;103.87;40.67;;;5.50;97.30;;;;;;5075238;28;20671;-88
2024/02/12 03:33:19;;;;;;;104.10;42.07;;;5.40;97.30;;;;;;5057564;28;20627;-89
2024/02/12 03:35:45;;;;;;;115.63;42.87;;;5.40;97.30;;;;;;5075199;28;20176;-89
2024/02/12 03:38:10;;;;;;;132.30;44.37;;;5.40;97.30;;;;;;5075214;28;20274;-89
2024/02/12 03:40:36;;;;;;;130.70;44.47;;;5.40;97.30;;;;;;5057236;28;20686;-89
2024/02/12 03:43:02;;;;;;;114.30;43.67;;;5.40;97.30;;;;;;5075207;28;20175;-89
2024/02/12 03:45:28;;;;;;;128.37;44.37;;;5.40;97.30;;;;;;5057267;28;20184;-89
2024/02/12 03:47:59;;;;;;;124.27;45.40;;;5.40;97.30;;;;;;5056993;28;20561;-89
2024/02/12 04:01:26;;;;;;;83.70;40.90;;;5.50;97.40;;;;;;5074979;28;20194;-89
2024/02/12 04:03:52;;;;;;;86.53;42.00;;;5.60;97.40;;;;;;5074845;28;20287;-89
2024/02/12 04:06:18;;;;;;;71.17;37.73;;;5.50;97.40;;;;;;5057249;28;20257;-90
2024/02/12 04:08:46;;;;;;;104.50;42.37;;;5.50;97.40;;;;;;5057477;28;20268;-89
2024/02/12 04:11:12;;;;;;;73.33;41.50;;;5.50;97.40;;;;;;5057197;28;20172;-90
2024/02/12 04:13:38;;;;;;;88.43;42.23;;;5.50;97.40;;;;;;5056677;28;20178;-89
2024/02/12 04:16:09;;;;;;;101.03;44.37;;;5.50;97.40;;;;;;5056610;28;20548;-89
2024/02/12 04:18:35;;;;;;;95.80;46.17;;;5.60;97.40;;;;;;5057114;28;20203;-89
2024/02/12 04:21:08;;;;;;;88.77;42.80;;;5.60;97.40;;;;;;5074296;28;20583;-89
2024/02/12 04:23:35;;;;;;;84.67;42.10;;;5.60;97.40;;;;;;5056678;28;20246;-89
2024/02/12 04:26:01;;;;;;;;;;;5.60;97.40;;;;;;5056811;28;20590;-89
2024/02/12 04:28:27;;;;;;;;;;;5.70;97.50;;;;;;5056681;28;19904;-89
2024/02/12 04:30:52;;;;;;;;;;;5.70;97.50;;;;;;5056716;28;19916;-88
2024/02/12 04:33:18;;;;;;;95.40;43.80;;;5.70;97.50;;;;;;5056523;28;19999;-89
2024/02/12 04:35:45;;;;;;;;;;;5.80;97.50;;;;;;5056906;28;20171;-89
2024/02/12 04:38:10;;;;;;;;;;;5.80;97.50;;;;;;5056509;28;19908;-89
2024/02/12 04:40:37;;;;;;;;;;;5.80;97.50;;;;;;5056595;28;20008;-89
2024/02/12 04:43:02;;;;;;;;;;;5.80;97.50;;;;;;5056888;28;19904;-90
2024/02/12 04:45:29;;;;;;;110.27;44.53;;;5.80;97.50;;;;;;5056557;28;19911;-89
2024/02/12 04:47:56;;;;;;;101.30;43.07;;;5.80;97.50;;;;;;5057027;28;20553;-89
2024/02/12 04:50:23;;;;;;;113.80;45.20;;;5.80;97.50;;;;;;5074318;28;20642;-89
2024/02/12 04:52:48;;;;;;;110.43;44.67;;;5.80;97.50;;;;;;5056255;28;20179;-88
2024/02/12 04:55:15;;;;;;;105.07;44.23;;;5.80;97.50;;;;;;5056406;28;25130;-89
2024/02/12 04:57:40;;;;;;;111.70;44.17;;;5.80;97.50;;;;;;5073761;28;20191;-89
2024/02/12 05:00:10;;;;;;;87.10;42.73;;;5.80;97.50;;;;;;5055983;28;20556;-90
2024/02/12 05:02:42;;;;;;;78.60;39.70;;;5.80;97.50;;;;;;5055784;28;20195;-89
2024/02/12 05:05:11;;;;;;;92.70;43.00;;;5.80;97.50;;;;;;5073914;28;20174;-89
2024/02/12 05:07:37;;;;;;;107.13;44.33;;;5.80;97.50;;;;;;5055794;28;20199;-89
2024/02/12 05:10:03;;;;;;;101.07;44.07;;;5.80;97.50;;;;;;5055768;28;20171;-90
2024/02/12 05:12:29;;;;;;;96.07;43.60;;;5.80;97.50;;;;;;5056071;28;20229;-89
2024/02/12 05:14:55;;;;;;;95.47;44.60;;;5.80;97.50;;;;;;5055581;28;20195;-89
2024/02/12 05:17:28;;;;;;;109.00;45.20;;;5.80;97.50;;;;;;5055612;28;20690;-90
2024/02/12 05:22:39;;;;;;;88.93;38.70;;;5.70;97.50;;;;;;5073832;28;20278;-89
2024/02/12 05:25:05;;;;;;;103.00;39.53;;;5.60;97.50;;;;;;5059383;28;20175;-89
2024/02/12 05:27:32;;;;;;;92.23;38.43;;;5.60;97.50;;;;;;5055313;28;20218;-89
2024/02/12 05:29:57;;;;;;;104.07;41.43;;;5.70;97.50;;;;;;5055338;28;20171;-89
2024/02/12 05:32:23;;;;;;;112.43;43.20;;;5.70;97.50;;;;;;5073160;28;20187;-89
2024/02/12 05:34:49;;;;;;;104.03;43.03;;;5.60;97.50;;;;;;5055335;28;20178;-89
2024/02/12 05:37:15;;;;;;;135.90;45.50;;;5.60;97.50;;;;;;5055373;28;20179;-91
2024/02/12 05:39:41;;;;;;;137.67;46.43;;;5.60;97.50;;;;;;5056175;28;20206;-89
2024/02/12 05:42:07;;;;;;;145.63;46.43;;;5.70;97.60;;;;;;5055450;28;20199;-89
2024/02/12 05:44:34;;;;;;;169.40;48.67;;;5.70;97.60;;;;;;5075591;28;20658;-89
2024/02/12 05:47:02;;;;;;;163.97;49.47;;;5.80;97.60;;;;;;5059918;28;20189;-89
2024/02/12 05:49:28;;;;;;;147.43;47.30;;;5.80;97.60;;;;;;5059453;28;20205;-89
2024/02/12 05:51:54;;;;;;;165.23;49.10;;;5.80;97.60;;;;;;5059792;28;20181;-89
2024/02/12 05:54:20;;;;;;;163.67;48.63;;;5.90;97.60;;;;;;5059927;28;20183;-89
2024/02/12 05:56:47;;;;;;;160.73;50.30;;;5.90;97.60;;;;;;5077630;28;20528;-89
2024/02/12 05:59:12;;;;;;;157.27;47.40;;;5.90;97.60;;;;;;5059973;28;20206;-89
2024/02/12 06:01:38;;;;;;;158.70;47.97;;;5.90;97.60;;;;;;5059600;28;20194;-89
2024/02/12 06:04:03;;;;;;;149.97;47.93;;;6.00;97.60;;;;;;5059408;28;20176;-89
2024/02/12 06:06:29;;;;;;;151.37;48.53;;;5.90;97.60;;;;;;5059909;28;20551;-89
2024/02/12 06:08:55;;;;;;;138.00;47.23;;;6.00;97.60;;;;;;5076871;28;20277;-89
2024/02/12 06:11:20;;;;;;;136.43;47.17;;;6.00;97.60;;;;;;5059091;28;20559;-89
2024/02/12 06:13:46;;;;;;;148.43;46.83;;;6.00;97.60;;;;;;5059149;28;20189;-89
2024/02/12 06:16:12;;;;;;;141.97;46.27;;;6.00;97.60;;;;;;5058952;28;20186;-89
2024/02/12 06:18:39;;;;;;;138.80;45.37;;;6.00;97.60;;;;;;5077113;28;20240;-89
2024/02/12 06:21:05;;;;;;;137.80;45.87;;;6.00;97.60;;;;;;5058690;28;20203;-89
2024/02/12 06:23:31;;;;;;;131.03;45.60;;;6.00;97.60;;;;;;5059082;28;20183;-89
2024/02/12 06:25:58;;;;;;;109.87;43.77;;;6.00;97.60;;;;;;5076581;28;20172;-89
2024/02/12 06:28:23;;;;;;;118.13;41.27;;;6.00;97.60;;;;;;5058811;28;20229;-89
2024/02/12 06:30:49;;;;;;;110.73;40.53;;;6.00;97.60;;;;;;5076682;28;20206;-89
2024/02/12 06:33:15;;;;;;;120.33;41.13;;;6.00;97.60;;;;;;5058591;28;20175;-89
2024/02/12 06:35:41;;;;;;;105.10;39.13;;;6.10;97.60;;;;;;5058802;28;20189;-90
2024/02/12 06:38:06;;;;;;;105.00;37.20;;;6.10;97.60;;;;;;5058378;28;20195;-89
2024/02/12 06:40:32;;;;;;;94.50;38.13;;;6.10;97.60;;;;;;5076639;28;20176;-89
2024/02/12 06:43:03;;;;;;;99.07;37.40;;;6.10;97.60;;;;;;5058533;28;20171;-89
2024/02/12 06:45:28;;;;;;;96.20;37.73;;;6.20;97.60;;;;;;5058455;28;20639;-89
2024/02/12 06:47:55;;;;;;;93.67;36.83;;;6.20;97.60;;;;;;5058365;28;20219;-89
2024/02/12 06:50:21;;;;;;;86.47;33.77;;;6.20;97.60;;;;;;5058344;28;20179;-89
2024/02/12 06:52:47;;;;;;;89.57;34.60;;;6.20;97.60;;;;;;5058416;28;20179;-89
2024/02/12 06:55:15;;;;;;;84.37;35.20;;;6.20;97.60;;;;;;5057115;28;20666;-88
2024/02/12 06:57:42;;;;;;;80.47;33.57;;;6.20;97.60;;;;;;5058478;28;20687;-90
2024/02/12 07:00:08;;;;;;;84.67;34.43;;;6.20;97.60;;;;;;5057901;28;20713;-89
2024/02/12 07:02:35;;;;;;;82.67;32.63;;;6.20;97.60;;;;;;5058115;28;20720;-89
2024/02/12 07:05:03;;;;;;;78.53;32.03;;;6.30;97.60;;;;;;5058230;28;20181;-89
2024/02/12 07:07:30;;;;;;;72.13;32.40;;;6.30;97.60;;;;;;5057926;28;20191;-89
2024/02/12 07:09:58;;;;;;;85.00;34.33;;;6.30;97.60;;;;;;5078344;28;20699;-89
2024/02/12 07:12:23;;;;;;;76.00;32.30;;;6.30;97.60;;;;;;5075954;28;20259;-89
2024/02/12 07:14:51;;;;;;;72.10;31.60;;;6.30;97.60;;;;;;5060513;28;20176;-91
2024/02/12 07:17:17;;;;;;;69.03;34.13;;;6.30;97.60;;;;;;5071864;22;20235;-90
2024/02/12 07:19:49;;;;;;;65.67;34.53;;;6.30;97.60;;;;;;5018053;28;20191;-90
2024/02/12 07:22:15;;;;;;;67.13;33.40;;;6.30;97.50;;;;;;5017747;28;20200;-89
2024/02/12 07:24:48;;;;;;;59.83;33.20;;;6.30;97.50;;;;;;5017644;28;20186;-89
2024/02/12 07:27:13;;;;;;;66.37;32.43;;;6.30;97.50;;;;;;5018225;28;20581;-89
2024/02/12 07:29:39;;;;;;;66.97;31.50;;;6.30;97.50;;;;;;5017569;28;20223;-89
2024/02/12 07:32:11;;;;;;;62.23;30.53;;;6.30;97.50;;;;;;5020324;28;20248;-90
2024/02/12 07:34:37;;;;;;;69.07;31.70;;;6.40;97.50;;;;;;5032252;28;20165;-91
2024/02/12 07:37:03;;;;;;;67.27;31.47;;;6.30;97.50;;;;;;5018014;28;20177;-89
2024/02/12 07:39:31;;;;;;;65.07;29.10;;;6.40;97.50;;;;;;5027841;28;20177;-91
2024/02/12 07:41:59;;;;;;;64.23;31.00;;;6.40;97.50;;;;;;5029329;28;20223;-91
2024/02/12 07:44:28;;;;;;;63.67;31.70;;;6.40;97.50;;;;;;5022273;28;20184;-91
2024/02/12 07:46:54;;;;;;;66.93;30.20;;;6.40;97.50;;;;;;5018192;28;20169;-90
2024/02/12 07:49:20;;;;;;;71.67;34.57;;;6.40;97.50;;;;;;5017173;28;20218;-90
2024/02/12 07:51:47;;;;;;;72.60;33.43;;;6.40;97.50;;;;;;5017314;28;20177;-89
2024/02/12 07:54:13;;;;;;;74.43;33.00;;;6.40;97.40;;;;;;5018258;28;20661;-92
2024/02/12 07:56:41;;;;;;;70.13;32.90;;;6.50;97.40;;;;;;5019002;28;20188;-88
2024/02/12 07:59:07;;;;;;;64.20;31.77;;;6.50;97.50;;;;;;5018886;28;20191;-87
2024/02/12 08:01:32;;;;;;;66.93;32.60;;;6.50;97.40;;;;;;5037745;28;20212;-89
2024/02/12 08:03:58;;;;;;;70.13;32.80;;;6.50;97.40;;;;;;5017067;28;20177;-89
2024/02/12 08:06:24;;;;;;;62.37;31.23;;;6.50;97.40;;;;;;5016622;28;20181;-89
2024/02/12 08:08:49;;;;;;;62.63;31.17;;;6.50;97.40;;;;;;5017319;28;20555;-89
2024/02/12 08:11:17;;;;;;;60.93;31.37;;;6.50;97.40;;;;;;5034786;28;20189;-89
2024/02/12 08:13:43;;;;;;;59.40;30.53;;;6.60;97.30;;;;;;5017425;28;20228;-89
2024/02/12 08:16:08;;;;;;;64.90;31.67;;;6.60;97.30;;;;;;5016659;28;20184;-89
2024/02/12 08:18:36;;;;;;;64.20;32.30;;;6.60;97.30;;;;;;5034695;28;20251;-89
2024/02/12 08:21:01;;;;;;;65.07;31.80;;;6.60;97.30;;;;;;5034619;28;20200;-90
2024/02/12 08:23:27;;;;;;;64.43;29.33;;;6.60;97.30;;;;;;5016831;28;20172;-89
2024/02/12 08:25:52;;;;;;;60.60;31.40;;;6.60;97.20;;;;;;5016984;28;20180;-89
2024/02/12 08:28:22;;;;;;;60.77;31.87;;;6.60;97.10;;;;;;5016552;28;20672;-89
2024/02/12 08:30:48;;;;;;;64.33;33.07;;;6.70;97.10;;;;;;5016554;28;20165;-90
2024/02/12 08:33:14;;;;;;;64.53;32.93;;;6.70;97.10;;;;;;5036105;28;20192;-91
2024/02/12 08:35:40;;;;;;;55.57;30.23;;;6.70;97.10;;;;;;5021992;28;20185;-91
2024/02/12 08:38:08;;;;;;;60.87;30.53;;;6.70;97.00;;;;;;5024652;28;20300;-89
2024/02/12 08:40:34;;;;;;;65.73;32.77;;;6.70;97.00;;;;;;5017660;28;20188;-88
2024/02/12 08:42:59;;;;;;;56.27;29.77;;;6.70;97.00;;;;;;5016726;28;20177;-87
2024/02/12 08:45:25;;;;;;;55.93;30.43;;;6.80;96.90;;;;;;5040858;28;20179;-89
2024/02/12 08:47:51;;;;;;;63.87;30.83;;;6.80;96.90;;;;;;5016378;28;20200;-89
2024/02/12 08:50:16;;;;;;;62.03;30.53;;;6.80;96.80;;;;;;5016337;28;20172;-90
2024/02/12 08:52:42;;;;;;;59.20;29.77;;;6.80;96.80;;;;;;5016495;28;20177;-89
2024/02/12 08:55:15;;;;;;;64.30;30.37;;;6.80;96.80;;;;;;5016140;28;20181;-89
2024/02/12 08:57:44;;;;;;;59.33;28.97;;;6.80;96.80;;;;;;5016117;28;20219;-88
2024/02/12 09:00:12;;;;;;;62.67;29.63;;;6.80;96.70;;;;;;5152289;23;20230;-90
2024/02/12 09:05:12;;;;;;;62.87;32.17;;;6.80;96.70;;;;;;5020710;28;20243;-89
2024/02/12 09:07:41;;;;;;;59.67;31.20;;;6.90;96.70;;;;;;5016306;28;20239;-87
2024/02/12 09:10:11;;;;;;;60.33;30.90;;;6.90;96.70;;;;;;5036007;28;20558;-91
2024/02/12 09:12:38;;;;;;;54.40;30.80;;;6.90;96.70;;;;;;5017552;28;20724;-87
2024/02/12 09:15:08;;;;;;;57.47;31.40;;;6.90;96.60;;;;;;5016821;28;20184;-89
2024/02/12 09:17:34;;;;;;;55.07;30.30;;;7.00;96.60;;;;;;5016155;28;20197;-88
2024/02/12 09:20:00;;;;;;;59.93;32.57;;;7.10;96.60;;;;;;5015613;28;20185;-91
2024/02/12 09:22:26;;;;;;;56.07;31.87;;;7.00;96.60;;;;;;5038832;28;20204;-89
2024/02/12 09:24:52;;;;;;;61.00;31.67;;;7.00;96.50;;;;;;5034099;28;20177;-89
2024/02/12 09:27:17;;;;;;;58.97;31.77;;;7.00;96.50;;;;;;5015661;28;20197;-88
2024/02/12 09:29:47;;;;;;;65.40;33.73;;;7.10;96.50;;;;;;5033258;28;20183;-88
2024/02/12 09:32:13;;;;;;;56.33;31.43;;;7.10;96.50;;;;;;5033236;28;20222;-89
2024/02/12 09:34:39;;;;;;;53.23;30.83;;;7.10;96.50;;;;;;5033075;28;20264;-89
2024/02/12 09:37:04;;;;;;;52.90;29.60;;;7.20;96.50;;;;;;5015440;28;20173;-88
2024/02/12 09:39:31;;;;;;;61.40;30.63;;;7.10;96.40;;;;;;5033189;28;20184;-88
2024/02/12 09:41:58;;;;;;;52.47;28.90;;;7.10;96.40;;;;;;5015313;28;20201;-88
2024/02/12 09:44:25;;;;;;;59.63;29.30;;;7.10;96.40;;;;;;5015576;28;20633;-88
2024/02/12 09:46:56;;;;;;;49.30;27.57;;;7.10;96.40;;;;;;5015748;28;20581;-88
2024/02/12 09:49:23;;;;;;;55.10;29.17;;;7.20;96.40;;;;;;5033063;28;20200;-88
2024/02/12 09:51:51;;;;;;;59.63;29.53;;;7.20;96.40;;;;;;5015433;28;20640;-88
2024/02/12 09:54:19;;;;;;;55.93;31.00;;;7.20;96.30;;;;;;5015811;28;20181;-88
2024/02/12 09:56:47;;;;;;;53.90;29.10;;;7.10;96.30;;;;;;5033031;28;20177;-88
2024/02/12 09:59:13;;;;;;;55.00;29.50;;;7.20;96.30;;;;;;5015349;28;20207;-89
2024/02/12 10:01:40;;;;;;;55.00;31.13;;;7.10;96.30;;;;;;5032895;28;20193;-88
2024/02/12 10:04:06;;;;;;;56.77;30.17;;;7.20;96.20;;;;;;5032969;28;20249;-88
2024/02/12 10:06:32;;;;;;;59.80;30.87;;;7.20;96.20;;;;;;5016067;28;20621;-88
2024/02/12 10:09:08;;;;;;;56.53;30.17;;;7.20;96.20;;;;;;5015397;28;20192;-89
2024/02/12 10:11:34;;;;;;;54.80;28.57;;;7.20;96.20;;;;;;5033821;28;20196;-89
2024/02/12 10:14:01;;;;;;;52.57;28.07;;;7.20;96.10;;;;;;5033499;28;20664;-88
2024/02/12 10:16:27;;;;;;;50.40;28.40;;;7.20;96.00;;;;;;5033074;28;20311;-89
2024/02/12 10:18:56;;;;;;;52.13;28.57;;;7.20;96.00;;;;;;5015499;28;20238;-89
2024/02/12 10:21:23;;;;;;;48.87;27.83;;;7.20;96.00;;;;;;5034621;28;20212;-88
2024/02/12 10:23:49;;;;;;;63.43;30.73;;;7.30;96.00;;;;;;5032679;28;20173;-88
2024/02/12 10:26:21;;;;;;;59.97;31.63;;;7.30;95.90;;;;;;5032920;28;20577;-89
2024/02/12 10:28:55;;;;;;;57.40;30.23;;;7.30;95.90;;;;;;5032739;28;20203;-89
2024/02/12 10:31:22;;;;;;;58.33;31.60;;;7.30;95.90;;;;;;5035788;28;20149;-88
2024/02/12 10:33:48;;;;;;;60.23;32.73;;;7.30;95.90;;;;;;5018523;28;20720;-89
2024/02/12 10:36:18;;;;;;;60.87;33.50;;;7.30;95.90;;;;;;5018633;28;20544;-88
2024/02/12 10:38:43;;;;;;;60.77;34.17;;;7.30;95.90;;;;;;5036112;28;20191;-88
2024/02/12 10:41:16;;;;;;;60.67;33.57;;;7.30;95.90;;;;;;5036055;28;20279;-88
2024/02/12 10:43:43;;;;;;;67.23;35.27;;;7.30;95.80;;;;;;5036545;28;20153;-88
2024/02/12 10:46:09;;;;;;;62.83;34.20;;;7.30;95.90;;;;;;5036015;28;20170;-88
2024/02/12 10:48:38;;;;;;;64.57;33.63;;;7.30;95.90;;;;;;5036028;28;20195;-89
2024/02/12 10:51:04;;;;;;;61.37;34.73;;;7.40;95.90;;;;;;5036384;28;20179;-88
2024/02/12 10:53:30;;;;;;;61.93;33.97;;;7.30;95.80;;;;;;5035887;28;20177;-88
2024/02/12 10:55:57;;;;;;;65.90;35.03;;;7.40;95.80;;;;;;5035860;28;20546;-88
2024/02/12 10:58:22;;;;;;;65.43;36.23;;;7.30;95.70;;;;;;5018193;28;20206;-89
2024/02/12 11:00:58;;;;;;;59.60;34.83;;;7.40;95.60;;;;;;5035748;28;20169;-89
2024/02/12 11:03:40;;;;;;;70.40;39.57;;;7.40;95.70;;;;;;5017842;28;20399;-88
2024/02/12 11:06:12;;;;;;;68.67;37.90;;;7.40;95.60;;;;;;5017334;28;20541;-88
2024/02/12 11:08:41;;;;;;;65.40;38.73;;;7.40;95.50;;;;;;5016840;28;20196;-87
2024/02/12 11:11:20;;;;;;;72.33;41.13;;;7.40;95.50;;;;;;5034525;28;20165;-89
2024/02/12 11:14:01;;;;;;;61.97;37.27;;;7.40;95.50;;;;;;5034772;28;20187;-89
2024/02/12 11:16:29;;;;;;;58.90;36.05;;;7.50;95.50;;;;;;5034530;28;20191;-89
2024/02/12 11:18:59;;;;;;;64.37;36.70;;;7.50;95.40;;;;;;5034856;28;20188;-88
2024/02/12 11:21:38;;;;;;;67.87;37.63;;;7.50;95.40;;;;;;5034799;28;20195;-88
2024/02/12 11:24:04;;;;;;;60.80;38.00;;;7.50;95.30;;;;;;5016753;28;20598;-89
2024/02/12 11:26:41;;;;;;;64.40;39.77;;;7.60;95.30;;;;;;5016559;28;20195;-89
2024/02/12 11:29:07;;;;;;;57.87;36.90;;;7.60;95.30;;;;;;5016583;28;20188;-89
2024/02/12 11:31:37;;;;;;;65.23;38.50;;;7.60;95.30;;;;;;5016496;28;20176;-87
2024/02/12 11:34:23;;;;;;;60.77;38.03;;;7.60;95.40;;;;;;5016526;28;20177;-89
2024/02/12 11:36:59;;;;;;;66.27;38.33;;;7.70;95.30;;;;;;5016677;28;20553;-89
2024/02/12 11:39:25;;;;;;;57.40;37.50;;;7.70;95.30;;;;;;5016374;28;20173;-89
2024/02/12 11:41:50;;;;;;;62.40;39.87;;;7.70;95.30;;;;;;5015465;28;20209;-88
2024/02/12 11:44:16;;;;;;;59.67;38.07;;;7.70;95.20;;;;;;5034140;28;20259;-88
2024/02/12 11:46:42;;;;;;;59.70;38.20;;;7.70;95.20;;;;;;5016467;28;20173;-88
2024/02/12 11:49:08;;;;;;;64.40;37.37;;;7.70;95.10;;;;;;5016789;28;20204;-88
2024/02/12 11:51:35;;;;;;;66.70;37.60;;;7.60;95.00;;;;;;5016175;28;20230;-88
2024/02/12 11:54:05;;;;;;;51.67;37.17;;;7.60;94.90;;;;;;5016312;28;20180;-88
2024/02/12 11:56:32;;;;;;;64.00;38.67;;;7.60;94.80;;;;;;5016208;28;20183;-88
2024/02/12 11:58:58;;;;;;;63.77;37.43;;;7.60;94.70;;;;;;5033718;28;20598;-89
2024/02/12 12:01:28;;;;;;;60.87;41.97;;;7.70;94.70;;;;;;5016111;28;20202;-87
2024/02/12 12:03:54;;;;;;;;;;;7.70;94.70;;;;;;4980611;28;1039389;-88
2024/02/12 12:06:22;;;;;;;69.00;44.75;;;7.70;94.60;;;;;;5017146;28;19959;-88
2024/02/12 12:08:50;;;;;;;58.50;37.40;;;7.70;94.50;;;;;;5016888;28;20188;-88
2024/02/12 12:11:22;;;;;;;60.47;39.10;;;7.70;94.40;;;;;;5034545;28;20173;-89
2024/02/12 12:13:55;;;;;;;55.83;37.80;;;7.70;94.40;;;;;;5017221;28;20649;-88
2024/02/12 12:16:21;;;;;;;65.60;40.45;;;7.70;94.50;;;;;;5040202;28;20027;-89
2024/02/12 12:18:49;;;;;;;58.23;38.53;;;7.80;94.50;;;;;;5018945;28;20203;-92
2024/02/12 12:21:18;;;;;;;63.27;38.77;;;7.80;94.50;;;;;;5021457;28;20200;-92
2024/02/12 12:23:44;;;;;;;69.13;41.30;;;7.90;94.50;;;;;;5023324;28;20176;-92
2024/02/12 12:26:11;;;;;;;64.43;37.83;;;8.00;94.60;;;;;;5016624;28;20183;-92
2024/02/12 12:28:37;;;;;;;57.33;38.67;;;8.10;94.50;;;;;;5016620;28;20193;-91
2024/02/12 12:31:04;;;;;;;57.90;39.77;;;8.00;94.20;;;;;;5016695;28;20597;-92
2024/02/12 12:33:34;;;;;;;58.93;38.13;;;8.10;94.20;;;;;;5016618;28;20676;-91
2024/02/12 12:35:59;;;;;;;54.53;40.77;;;8.20;94.10;;;;;;5036395;28;20172;-92
2024/02/12 12:38:25;;;;;;;51.33;38.47;;;8.20;93.50;;;;;;5017271;28;20196;-92
2024/02/12 12:40:50;;;;;;;53.53;36.40;;;8.20;93.40;;;;;;5017804;28;20203;-91
2024/02/12 12:43:16;;;;;;;53.10;38.70;;;8.20;93.10;;;;;;5016984;28;20588;-92
2024/02/12 12:45:42;;;;;;;51.70;37.33;;;8.10;93.00;;;;;;5016962;28;20663;-91
2024/02/12 12:48:12;;;;;;;48.20;34.70;;;8.20;93.00;;;;;;5017069;28;20573;-91
2024/02/12 12:50:38;;;;;;;46.47;36.53;;;8.10;92.90;;;;;;5017230;28;20180;-91
2024/02/12 12:53:06;;;;;;;42.57;34.80;;;8.20;92.80;;;;;;5016769;28;20211;-92